sensor_id;sensor_type;location;lat;lon;timestamp;P1;durP1;ratioP1;P2;durP2;ratioP2
31758;SDS011;36334;51.366;0.020;2023-01-06T00:02:43;5.15;;;2.05;;
31758;SDS011;36334;51.366;0.020;2023-01-06T00:05:32;7.43;;;1.98;;
31758;SDS011;36334;51.366;0.020;2023-01-06T00:08:19;7.35;;;1.63;;
31758;SDS011;36334;51.366;0.020;2023-01-06T00:11:08;5.47;;;1.90;;
31758;SDS011;36334;51.366;0.020;2023-01-06T00:13:59;5.47;;;2.03;;
31758;SDS011;36334;51.366;0.020;2023-01-06T00:16:45;2.90;;;1.77;;
31758;SDS011;36334;51.366;0.020;2023-01-06T00:19:31;6.50;;;1.70;;
31758;SDS011;36334;51.366;0.020;2023-01-06T00:22:18;7.43;;;2.33;;
31758;SDS011;36334;51.366;0.020;2023-01-06T00:25:05;9.05;;;2.00;;
31758;SDS011;36334;51.366;0.020;2023-01-06T00:27:51;9.23;;;3.60;;
31758;SDS011;36334;51.366;0.020;2023-01-06T00:30:38;5.68;;;1.58;;
31758;SDS011;36334;51.366;0.020;2023-01-06T00:33:24;9.90;;;2.22;;
31758;SDS011;36334;51.366;0.020;2023-01-06T00:36:11;5.82;;;1.98;;
31758;SDS011;36334;51.366;0.020;2023-01-06T00:38:59;5.80;;;1.70;;
31758;SDS011;36334;51.366;0.020;2023-01-06T00:41:45;8.15;;;2.10;;
31758;SDS011;36334;51.366;0.020;2023-01-06T00:44:51;4.05;;;1.67;;
31758;SDS011;36334;51.366;0.020;2023-01-06T00:47:38;6.78;;;2.35;;
31758;SDS011;36334;51.366;0.020;2023-01-06T00:50:24;8.38;;;2.13;;
31758;SDS011;36334;51.366;0.020;2023-01-06T00:53:10;2.75;;;1.20;;
31758;SDS011;36334;51.366;0.020;2023-01-06T00:55:59;4.50;;;1.38;;
31758;SDS011;36334;51.366;0.020;2023-01-06T00:58:46;5.80;;;1.35;;
31758;SDS011;36334;51.366;0.020;2023-01-06T01:01:33;2.90;;;1.30;;
31758;SDS011;36334;51.366;0.020;2023-01-06T01:04:20;4.53;;;1.60;;
31758;SDS011;36334;51.366;0.020;2023-01-06T01:07:06;2.58;;;1.30;;
31758;SDS011;36334;51.366;0.020;2023-01-06T01:09:53;2.88;;;1.23;;
31758;SDS011;36334;51.366;0.020;2023-01-06T01:12:39;4.10;;;1.50;;
31758;SDS011;36334;51.366;0.020;2023-01-06T01:15:25;7.43;;;1.63;;
31758;SDS011;36334;51.366;0.020;2023-01-06T01:18:11;5.10;;;1.90;;
31758;SDS011;36334;51.366;0.020;2023-01-06T01:20:58;7.35;;;2.40;;
31758;SDS011;36334;51.366;0.020;2023-01-06T01:23:45;6.57;;;2.35;;
31758;SDS011;36334;51.366;0.020;2023-01-06T01:26:31;4.65;;;1.65;;
31758;SDS011;36334;51.366;0.020;2023-01-06T01:29:25;6.25;;;1.60;;
31758;SDS011;36334;51.366;0.020;2023-01-06T01:32:12;3.15;;;1.42;;
31758;SDS011;36334;51.366;0.020;2023-01-06T01:34:58;3.67;;;1.95;;
31758;SDS011;36334;51.366;0.020;2023-01-06T01:37:44;6.68;;;2.15;;
31758;SDS011;36334;51.366;0.020;2023-01-06T01:40:30;6.50;;;1.50;;
31758;SDS011;36334;51.366;0.020;2023-01-06T01:43:16;7.88;;;1.95;;
31758;SDS011;36334;51.366;0.020;2023-01-06T01:46:03;5.53;;;1.92;;
31758;SDS011;36334;51.366;0.020;2023-01-06T01:48:50;7.55;;;1.70;;
31758;SDS011;36334;51.366;0.020;2023-01-06T01:51:40;5.78;;;1.90;;
31758;SDS011;36334;51.366;0.020;2023-01-06T01:54:29;7.53;;;1.90;;
31758;SDS011;36334;51.366;0.020;2023-01-06T01:57:20;4.78;;;1.70;;
31758;SDS011;36334;51.366;0.020;2023-01-06T02:02:59;3.95;;;1.38;;
31758;SDS011;36334;51.366;0.020;2023-01-06T02:05:51;5.05;;;1.30;;
31758;SDS011;36334;51.366;0.020;2023-01-06T02:08:45;6.00;;;1.80;;
31758;SDS011;36334;51.366;0.020;2023-01-06T02:11:47;4.47;;;1.20;;
31758;SDS011;36334;51.366;0.020;2023-01-06T02:14:36;6.40;;;1.38;;
31758;SDS011;36334;51.366;0.020;2023-01-06T02:17:28;4.68;;;1.10;;
31758;SDS011;36334;51.366;0.020;2023-01-06T02:39:51;2.28;;;0.60;;
31758;SDS011;36334;51.366;0.020;2023-01-06T02:43:05;1.10;;;0.52;;
31758;SDS011;36334;51.366;0.020;2023-01-06T02:52:58;3.00;;;0.60;;
31758;SDS011;36334;51.366;0.020;2023-01-06T02:55:49;1.87;;;1.23;;
31758;SDS011;36334;51.366;0.020;2023-01-06T02:58:46;1.42;;;0.68;;
31758;SDS011;36334;51.366;0.020;2023-01-06T03:01:55;3.05;;;0.60;;
31758;SDS011;36334;51.366;0.020;2023-01-06T03:04:44;0.50;;;0.45;;
31758;SDS011;36334;51.366;0.020;2023-01-06T03:07:35;1.00;;;0.40;;
31758;SDS011;36334;51.366;0.020;2023-01-06T03:10:23;0.98;;;0.30;;
31758;SDS011;36334;51.366;0.020;2023-01-06T03:16:32;1.65;;;0.38;;
31758;SDS011;36334;51.366;0.020;2023-01-06T03:19:18;2.80;;;0.70;;
31758;SDS011;36334;51.366;0.020;2023-01-06T03:22:06;1.42;;;0.60;;
31758;SDS011;36334;51.366;0.020;2023-01-06T03:24:54;1.60;;;0.52;;
31758;SDS011;36334;51.366;0.020;2023-01-06T03:27:42;1.42;;;0.60;;
31758;SDS011;36334;51.366;0.020;2023-01-06T03:30:30;1.05;;;0.60;;
31758;SDS011;36334;51.366;0.020;2023-01-06T03:33:29;2.55;;;0.70;;
31758;SDS011;36334;51.366;0.020;2023-01-06T03:36:40;2.05;;;0.93;;
31758;SDS011;36334;51.366;0.020;2023-01-06T03:39:34;2.47;;;0.65;;
31758;SDS011;36334;51.366;0.020;2023-01-06T03:42:41;1.45;;;0.75;;
31758;SDS011;36334;51.366;0.020;2023-01-06T03:46:06;1.20;;;0.60;;
31758;SDS011;36334;51.366;0.020;2023-01-06T03:49:12;1.27;;;0.50;;
31758;SDS011;36334;51.366;0.020;2023-01-06T03:55:17;3.58;;;0.60;;
31758;SDS011;36334;51.366;0.020;2023-01-06T03:58:08;0.75;;;0.60;;
31758;SDS011;36334;51.366;0.020;2023-01-06T04:01:00;3.03;;;1.40;;
31758;SDS011;36334;51.366;0.020;2023-01-06T04:03:47;1.30;;;0.60;;
31758;SDS011;36334;51.366;0.020;2023-01-06T04:06:47;1.55;;;1.00;;
31758;SDS011;36334;51.366;0.020;2023-01-06T04:09:34;1.77;;;0.63;;
31758;SDS011;36334;51.366;0.020;2023-01-06T04:12:20;1.85;;;0.80;;
31758;SDS011;36334;51.366;0.020;2023-01-06T04:15:38;2.03;;;1.38;;
31758;SDS011;36334;51.366;0.020;2023-01-06T04:18:26;1.65;;;0.98;;
31758;SDS011;36334;51.366;0.020;2023-01-06T04:21:13;2.38;;;1.10;;
31758;SDS011;36334;51.366;0.020;2023-01-06T04:24:00;1.17;;;0.80;;
31758;SDS011;36334;51.366;0.020;2023-01-06T04:26:49;3.30;;;1.20;;
31758;SDS011;36334;51.366;0.020;2023-01-06T04:29:35;4.15;;;0.90;;
31758;SDS011;36334;51.366;0.020;2023-01-06T04:32:21;3.25;;;0.80;;
31758;SDS011;36334;51.366;0.020;2023-01-06T04:35:09;3.25;;;1.00;;
31758;SDS011;36334;51.366;0.020;2023-01-06T04:37:56;2.83;;;1.27;;
31758;SDS011;36334;51.366;0.020;2023-01-06T04:40:46;3.22;;;0.98;;
31758;SDS011;36334;51.366;0.020;2023-01-06T04:43:32;4.55;;;1.00;;
31758;SDS011;36334;51.366;0.020;2023-01-06T04:46:18;5.82;;;1.85;;
31758;SDS011;36334;51.366;0.020;2023-01-06T04:49:05;1.45;;;0.63;;
31758;SDS011;36334;51.366;0.020;2023-01-06T04:51:55;1.50;;;0.77;;
31758;SDS011;36334;51.366;0.020;2023-01-06T04:54:41;2.35;;;0.95;;
31758;SDS011;36334;51.366;0.020;2023-01-06T04:57:27;3.03;;;1.00;;
31758;SDS011;36334;51.366;0.020;2023-01-06T05:00:13;3.10;;;0.88;;
31758;SDS011;36334;51.366;0.020;2023-01-06T05:03:00;3.58;;;0.95;;
31758;SDS011;36334;51.366;0.020;2023-01-06T05:05:46;1.38;;;0.80;;
31758;SDS011;36334;51.366;0.020;2023-01-06T05:08:32;5.55;;;1.13;;
31758;SDS011;36334;51.366;0.020;2023-01-06T05:11:19;5.75;;;1.17;;
31758;SDS011;36334;51.366;0.020;2023-01-06T05:14:11;5.55;;;1.25;;
31758;SDS011;36334;51.366;0.020;2023-01-06T05:16:57;2.80;;;0.90;;
31758;SDS011;36334;51.366;0.020;2023-01-06T05:19:44;3.65;;;0.80;;
31758;SDS011;36334;51.366;0.020;2023-01-06T05:22:30;3.67;;;0.98;;
31758;SDS011;36334;51.366;0.020;2023-01-06T05:25:16;3.10;;;0.80;;
31758;SDS011;36334;51.366;0.020;2023-01-06T05:28:02;3.63;;;1.27;;
31758;SDS011;36334;51.366;0.020;2023-01-06T05:30:48;2.85;;;1.17;;
31758;SDS011;36334;51.366;0.020;2023-01-06T05:33:35;4.25;;;1.05;;
31758;SDS011;36334;51.366;0.020;2023-01-06T05:36:21;4.30;;;1.00;;
31758;SDS011;36334;51.366;0.020;2023-01-06T05:39:08;4.13;;;1.73;;
31758;SDS011;36334;51.366;0.020;2023-01-06T05:41:54;5.20;;;1.02;;
31758;SDS011;36334;51.366;0.020;2023-01-06T05:44:41;4.10;;;1.00;;
31758;SDS011;36334;51.366;0.020;2023-01-06T05:47:27;5.80;;;0.90;;
31758;SDS011;36334;51.366;0.020;2023-01-06T05:50:13;2.70;;;1.10;;
31758;SDS011;36334;51.366;0.020;2023-01-06T05:52:59;2.63;;;0.95;;
31758;SDS011;36334;51.366;0.020;2023-01-06T05:55:45;5.40;;;1.05;;
31758;SDS011;36334;51.366;0.020;2023-01-06T05:58:31;4.75;;;1.20;;
31758;SDS011;36334;51.366;0.020;2023-01-06T06:01:19;4.28;;;0.88;;
31758;SDS011;36334;51.366;0.020;2023-01-06T06:04:10;5.90;;;1.10;;
31758;SDS011;36334;51.366;0.020;2023-01-06T06:06:57;6.25;;;1.30;;
31758;SDS011;36334;51.366;0.020;2023-01-06T06:09:43;3.55;;;1.10;;
31758;SDS011;36334;51.366;0.020;2023-01-06T06:12:29;4.22;;;0.98;;
31758;SDS011;36334;51.366;0.020;2023-01-06T06:15:15;4.03;;;1.38;;
31758;SDS011;36334;51.366;0.020;2023-01-06T06:18:01;5.80;;;1.10;;
31758;SDS011;36334;51.366;0.020;2023-01-06T06:20:47;3.13;;;0.88;;
31758;SDS011;36334;51.366;0.020;2023-01-06T06:23:34;7.13;;;0.85;;
31758;SDS011;36334;51.366;0.020;2023-01-06T06:26:21;3.90;;;0.93;;
31758;SDS011;36334;51.366;0.020;2023-01-06T06:29:07;3.17;;;0.80;;
31758;SDS011;36334;51.366;0.020;2023-01-06T06:31:54;4.13;;;1.20;;
31758;SDS011;36334;51.366;0.020;2023-01-06T06:34:40;2.00;;;1.27;;
31758;SDS011;36334;51.366;0.020;2023-01-06T06:37:26;3.60;;;0.70;;
31758;SDS011;36334;51.366;0.020;2023-01-06T06:40:12;1.90;;;0.82;;
31758;SDS011;36334;51.366;0.020;2023-01-06T06:42:58;2.28;;;0.80;;
31758;SDS011;36334;51.366;0.020;2023-01-06T06:45:44;5.72;;;1.15;;
31758;SDS011;36334;51.366;0.020;2023-01-06T06:48:32;2.63;;;0.73;;
31758;SDS011;36334;51.366;0.020;2023-01-06T06:51:19;2.95;;;1.00;;
31758;SDS011;36334;51.366;0.020;2023-01-06T06:54:07;5.32;;;1.17;;
31758;SDS011;36334;51.366;0.020;2023-01-06T06:56:53;2.03;;;0.82;;
31758;SDS011;36334;51.366;0.020;2023-01-06T06:59:41;3.58;;;0.93;;
31758;SDS011;36334;51.366;0.020;2023-01-06T07:02:27;2.70;;;0.95;;
31758;SDS011;36334;51.366;0.020;2023-01-06T07:05:13;3.00;;;0.80;;
31758;SDS011;36334;51.366;0.020;2023-01-06T07:08:00;3.17;;;1.33;;
31758;SDS011;36334;51.366;0.020;2023-01-06T07:10:46;2.33;;;0.85;;
31758;SDS011;36334;51.366;0.020;2023-01-06T07:13:32;2.00;;;0.70;;
31758;SDS011;36334;51.366;0.020;2023-01-06T07:16:21;3.53;;;1.00;;
31758;SDS011;36334;51.366;0.020;2023-01-06T07:19:10;1.35;;;0.82;;
31758;SDS011;36334;51.366;0.020;2023-01-06T07:21:57;3.53;;;1.23;;
31758;SDS011;36334;51.366;0.020;2023-01-06T07:24:43;4.13;;;1.17;;
31758;SDS011;36334;51.366;0.020;2023-01-06T07:27:29;6.50;;;1.15;;
31758;SDS011;36334;51.366;0.020;2023-01-06T07:30:15;2.78;;;0.90;;
31758;SDS011;36334;51.366;0.020;2023-01-06T07:33:02;2.70;;;1.00;;
31758;SDS011;36334;51.366;0.020;2023-01-06T07:35:55;1.90;;;0.80;;
31758;SDS011;36334;51.366;0.020;2023-01-06T07:38:41;3.80;;;1.80;;
31758;SDS011;36334;51.366;0.020;2023-01-06T07:41:27;5.03;;;1.00;;
31758;SDS011;36334;51.366;0.020;2023-01-06T07:44:17;2.00;;;0.95;;
31758;SDS011;36334;51.366;0.020;2023-01-06T07:47:03;5.43;;;0.88;;
31758;SDS011;36334;51.366;0.020;2023-01-06T07:49:51;3.10;;;0.90;;
31758;SDS011;36334;51.366;0.020;2023-01-06T07:52:37;3.67;;;0.85;;
31758;SDS011;36334;51.366;0.020;2023-01-06T07:55:23;3.50;;;0.93;;
31758;SDS011;36334;51.366;0.020;2023-01-06T07:58:09;3.20;;;2.13;;
31758;SDS011;36334;51.366;0.020;2023-01-06T08:00:56;8.00;;;1.98;;
31758;SDS011;36334;51.366;0.020;2023-01-06T08:03:42;3.53;;;0.95;;
31758;SDS011;36334;51.366;0.020;2023-01-06T08:06:28;3.28;;;1.45;;
31758;SDS011;36334;51.366;0.020;2023-01-06T08:09:15;3.17;;;1.10;;
31758;SDS011;36334;51.366;0.020;2023-01-06T08:12:01;1.60;;;0.75;;
31758;SDS011;36334;51.366;0.020;2023-01-06T08:14:47;3.50;;;1.15;;
31758;SDS011;36334;51.366;0.020;2023-01-06T08:17:33;6.68;;;1.27;;
31758;SDS011;36334;51.366;0.020;2023-01-06T08:20:19;3.35;;;1.33;;
31758;SDS011;36334;51.366;0.020;2023-01-06T08:23:06;4.38;;;1.00;;
31758;SDS011;36334;51.366;0.020;2023-01-06T08:25:52;3.53;;;1.73;;
31758;SDS011;36334;51.366;0.020;2023-01-06T08:28:45;7.10;;;1.52;;
31758;SDS011;36334;51.366;0.020;2023-01-06T08:31:31;4.53;;;1.25;;
31758;SDS011;36334;51.366;0.020;2023-01-06T08:34:17;3.55;;;0.98;;
31758;SDS011;36334;51.366;0.020;2023-01-06T08:37:03;2.45;;;1.42;;
31758;SDS011;36334;51.366;0.020;2023-01-06T08:39:49;4.45;;;1.38;;
31758;SDS011;36334;51.366;0.020;2023-01-06T08:42:35;1.88;;;0.82;;
31758;SDS011;36334;51.366;0.020;2023-01-06T08:45:21;6.30;;;1.38;;
31758;SDS011;36334;51.366;0.020;2023-01-06T08:48:07;1.70;;;0.98;;
31758;SDS011;36334;51.366;0.020;2023-01-06T08:50:53;2.53;;;0.90;;
31758;SDS011;36334;51.366;0.020;2023-01-06T08:53:41;1.40;;;0.88;;
31758;SDS011;36334;51.366;0.020;2023-01-06T08:56:29;7.00;;;1.55;;
31758;SDS011;36334;51.366;0.020;2023-01-06T08:59:16;4.68;;;1.35;;
31758;SDS011;36334;51.366;0.020;2023-01-06T09:02:02;5.80;;;1.50;;
31758;SDS011;36334;51.366;0.020;2023-01-06T09:04:49;4.25;;;1.58;;
31758;SDS011;36334;51.366;0.020;2023-01-06T09:07:35;4.95;;;1.08;;
31758;SDS011;36334;51.366;0.020;2023-01-06T09:10:21;3.05;;;1.35;;
31758;SDS011;36334;51.366;0.020;2023-01-06T09:13:07;2.55;;;1.20;;
31758;SDS011;36334;51.366;0.020;2023-01-06T09:15:54;5.20;;;1.63;;
31758;SDS011;36334;51.366;0.020;2023-01-06T09:18:40;3.90;;;1.25;;
31758;SDS011;36334;51.366;0.020;2023-01-06T09:21:32;3.63;;;1.00;;
31758;SDS011;36334;51.366;0.020;2023-01-06T09:24:19;3.92;;;1.30;;
31758;SDS011;36334;51.366;0.020;2023-01-06T09:27:05;5.47;;;1.30;;
31758;SDS011;36334;51.366;0.020;2023-01-06T09:29:51;6.65;;;1.38;;
31758;SDS011;36334;51.366;0.020;2023-01-06T09:32:37;7.90;;;1.30;;
31758;SDS011;36334;51.366;0.020;2023-01-06T09:35:23;5.43;;;1.20;;
31758;SDS011;36334;51.366;0.020;2023-01-06T09:38:09;2.22;;;1.15;;
31758;SDS011;36334;51.366;0.020;2023-01-06T09:46:55;6.20;;;1.30;;
31758;SDS011;36334;51.366;0.020;2023-01-06T09:52:52;5.18;;;1.60;;
31758;SDS011;36334;51.366;0.020;2023-01-06T09:55:44;6.40;;;1.50;;
31758;SDS011;36334;51.366;0.020;2023-01-06T09:58:41;3.13;;;1.20;;
31758;SDS011;36334;51.366;0.020;2023-01-06T10:01:44;5.20;;;1.95;;
31758;SDS011;36334;51.366;0.020;2023-01-06T10:04:33;5.45;;;1.20;;
31758;SDS011;36334;51.366;0.020;2023-01-06T10:10:13;2.70;;;1.20;;
31758;SDS011;36334;51.366;0.020;2023-01-06T10:25:39;5.05;;;2.45;;
31758;SDS011;36334;51.366;0.020;2023-01-06T10:28:28;7.05;;;2.00;;
31758;SDS011;36334;51.366;0.020;2023-01-06T10:31:21;5.07;;;1.45;;
31758;SDS011;36334;51.366;0.020;2023-01-06T10:34:23;6.10;;;1.85;;
31758;SDS011;36334;51.366;0.020;2023-01-06T10:37:19;8.18;;;1.65;;
31758;SDS011;36334;51.366;0.020;2023-01-06T10:40:27;8.02;;;1.35;;
31758;SDS011;36334;51.366;0.020;2023-01-06T10:43:15;3.50;;;1.58;;
31758;SDS011;36334;51.366;0.020;2023-01-06T10:46:06;5.18;;;2.35;;
31758;SDS011;36334;51.366;0.020;2023-01-06T10:48:54;4.72;;;1.52;;
31758;SDS011;36334;51.366;0.020;2023-01-06T10:51:41;6.35;;;1.80;;
31758;SDS011;36334;51.366;0.020;2023-01-06T10:54:33;10.05;;;2.35;;
31758;SDS011;36334;51.366;0.020;2023-01-06T10:57:25;4.97;;;1.77;;
31758;SDS011;36334;51.366;0.020;2023-01-06T11:00:19;7.38;;;1.67;;
31758;SDS011;36334;51.366;0.020;2023-01-06T11:03:08;7.88;;;2.00;;
31758;SDS011;36334;51.366;0.020;2023-01-06T11:09:27;7.18;;;2.75;;
31758;SDS011;36334;51.366;0.020;2023-01-06T11:12:27;6.75;;;1.70;;
31758;SDS011;36334;51.366;0.020;2023-01-06T11:15:19;5.78;;;2.05;;
31758;SDS011;36334;51.366;0.020;2023-01-06T11:18:40;3.42;;;1.60;;
31758;SDS011;36334;51.366;0.020;2023-01-06T11:21:22;6.10;;;1.85;;
31758;SDS011;36334;51.366;0.020;2023-01-06T11:24:28;3.88;;;1.70;;
31758;SDS011;36334;51.366;0.020;2023-01-06T11:27:15;10.45;;;2.97;;
31758;SDS011;36334;51.366;0.020;2023-01-06T11:30:17;4.82;;;1.40;;
31758;SDS011;36334;51.366;0.020;2023-01-06T11:33:15;5.15;;;1.90;;
31758;SDS011;36334;51.366;0.020;2023-01-06T11:36:05;6.75;;;1.80;;
31758;SDS011;36334;51.366;0.020;2023-01-06T11:38:55;7.05;;;2.75;;
31758;SDS011;36334;51.366;0.020;2023-01-06T11:41:44;7.38;;;1.80;;
31758;SDS011;36334;51.366;0.020;2023-01-06T11:44:39;4.63;;;3.05;;
31758;SDS011;36334;51.366;0.020;2023-01-06T11:47:26;3.63;;;1.55;;
31758;SDS011;36334;51.366;0.020;2023-01-06T11:50:15;5.15;;;1.92;;
31758;SDS011;36334;51.366;0.020;2023-01-06T11:53:14;8.45;;;1.60;;
31758;SDS011;36334;51.366;0.020;2023-01-06T11:59:02;7.32;;;1.70;;
31758;SDS011;36334;51.366;0.020;2023-01-06T12:01:54;9.40;;;1.92;;
31758;SDS011;36334;51.366;0.020;2023-01-06T12:04:50;6.85;;;2.40;;
31758;SDS011;36334;51.366;0.020;2023-01-06T12:07:40;3.63;;;1.60;;
31758;SDS011;36334;51.366;0.020;2023-01-06T12:10:35;5.15;;;2.13;;
31758;SDS011;36334;51.366;0.020;2023-01-06T12:13:24;4.85;;;1.58;;
31758;SDS011;36334;51.366;0.020;2023-01-06T12:16:12;8.18;;;2.30;;
31758;SDS011;36334;51.366;0.020;2023-01-06T12:19:19;3.65;;;1.63;;
31758;SDS011;36334;51.366;0.020;2023-01-06T12:22:20;6.40;;;1.60;;
31758;SDS011;36334;51.366;0.020;2023-01-06T12:25:23;6.03;;;1.50;;
31758;SDS011;36334;51.366;0.020;2023-01-06T12:28:18;7.25;;;1.45;;
31758;SDS011;36334;51.366;0.020;2023-01-06T12:31:14;5.97;;;2.05;;
31758;SDS011;36334;51.366;0.020;2023-01-06T12:34:11;5.43;;;1.92;;
31758;SDS011;36334;51.366;0.020;2023-01-06T12:37:19;5.32;;;1.75;;
31758;SDS011;36334;51.366;0.020;2023-01-06T12:43:18;7.18;;;1.65;;
31758;SDS011;36334;51.366;0.020;2023-01-06T12:49:07;6.20;;;1.50;;
31758;SDS011;36334;51.366;0.020;2023-01-06T12:52:02;7.60;;;1.60;;
31758;SDS011;36334;51.366;0.020;2023-01-06T12:54:55;6.35;;;1.67;;
31758;SDS011;36334;51.366;0.020;2023-01-06T13:09:38;5.78;;;1.38;;
31758;SDS011;36334;51.366;0.020;2023-01-06T13:16:04;5.28;;;1.40;;
31758;SDS011;36334;51.366;0.020;2023-01-06T13:19:06;8.88;;;2.25;;
31758;SDS011;36334;51.366;0.020;2023-01-06T13:22:03;4.65;;;1.35;;
31758;SDS011;36334;51.366;0.020;2023-01-06T13:25:00;5.03;;;1.35;;
31758;SDS011;36334;51.366;0.020;2023-01-06T13:28:16;3.95;;;1.20;;
31758;SDS011;36334;51.366;0.020;2023-01-06T13:38:16;2.42;;;1.20;;
31758;SDS011;36334;51.366;0.020;2023-01-06T13:40:45;4.68;;;1.75;;
31758;SDS011;36334;51.366;0.020;2023-01-06T13:43:33;4.38;;;1.60;;
31758;SDS011;36334;51.366;0.020;2023-01-06T13:46:20;3.72;;;1.35;;
31758;SDS011;36334;51.366;0.020;2023-01-06T13:49:09;3.55;;;1.98;;
31758;SDS011;36334;51.366;0.020;2023-01-06T13:51:56;4.88;;;1.67;;
31758;SDS011;36334;51.366;0.020;2023-01-06T13:57:32;5.10;;;1.35;;
31758;SDS011;36334;51.366;0.020;2023-01-06T14:00:27;6.13;;;1.50;;
31758;SDS011;36334;51.366;0.020;2023-01-06T14:03:19;4.75;;;1.60;;
31758;SDS011;36334;51.366;0.020;2023-01-06T14:06:49;4.15;;;1.63;;
31758;SDS011;36334;51.366;0.020;2023-01-06T14:09:23;9.05;;;1.83;;
31758;SDS011;36334;51.366;0.020;2023-01-06T14:12:29;4.82;;;1.25;;
31758;SDS011;36334;51.366;0.020;2023-01-06T14:15:30;3.38;;;1.38;;
31758;SDS011;36334;51.366;0.020;2023-01-06T14:18:27;5.72;;;1.60;;
31758;SDS011;36334;51.366;0.020;2023-01-06T14:24:30;4.40;;;1.50;;
31758;SDS011;36334;51.366;0.020;2023-01-06T14:30:31;6.13;;;1.60;;
31758;SDS011;36334;51.366;0.020;2023-01-06T14:33:33;4.65;;;1.65;;
31758;SDS011;36334;51.366;0.020;2023-01-06T14:36:22;10.10;;;1.50;;
31758;SDS011;36334;51.366;0.020;2023-01-06T14:39:16;5.47;;;2.20;;
31758;SDS011;36334;51.366;0.020;2023-01-06T14:42:07;6.00;;;1.70;;
31758;SDS011;36334;51.366;0.020;2023-01-06T14:45:13;5.63;;;2.03;;
31758;SDS011;36334;51.366;0.020;2023-01-06T14:48:03;4.15;;;1.95;;
31758;SDS011;36334;51.366;0.020;2023-01-06T14:50:58;8.50;;;1.95;;
31758;SDS011;36334;51.366;0.020;2023-01-06T14:53:46;7.40;;;2.30;;
31758;SDS011;36334;51.366;0.020;2023-01-06T14:56:36;7.25;;;1.98;;
31758;SDS011;36334;51.366;0.020;2023-01-06T14:59:22;6.82;;;1.60;;
31758;SDS011;36334;51.366;0.020;2023-01-06T15:02:15;4.25;;;1.65;;
31758;SDS011;36334;51.366;0.020;2023-01-06T15:05:01;2.97;;;2.08;;
31758;SDS011;36334;51.366;0.020;2023-01-06T15:07:57;7.18;;;1.80;;
31758;SDS011;36334;51.366;0.020;2023-01-06T15:10:52;4.47;;;2.58;;
31758;SDS011;36334;51.366;0.020;2023-01-06T15:13:41;7.07;;;2.20;;
31758;SDS011;36334;51.366;0.020;2023-01-06T15:19:24;11.60;;;2.75;;
31758;SDS011;36334;51.366;0.020;2023-01-06T15:22:11;3.35;;;1.77;;
31758;SDS011;36334;51.366;0.020;2023-01-06T15:25:05;6.55;;;1.92;;
31758;SDS011;36334;51.366;0.020;2023-01-06T15:27:52;5.43;;;1.60;;
31758;SDS011;36334;51.366;0.020;2023-01-06T15:30:47;7.60;;;2.58;;
31758;SDS011;36334;51.366;0.020;2023-01-06T15:33:38;4.38;;;1.77;;
31758;SDS011;36334;51.366;0.020;2023-01-06T15:36:26;3.47;;;1.65;;
31758;SDS011;36334;51.366;0.020;2023-01-06T15:39:13;2.75;;;1.55;;
31758;SDS011;36334;51.366;0.020;2023-01-06T15:42:03;5.05;;;1.67;;
31758;SDS011;36334;51.366;0.020;2023-01-06T15:44:54;4.30;;;1.88;;
31758;SDS011;36334;51.366;0.020;2023-01-06T15:47:45;2.70;;;1.50;;
31758;SDS011;36334;51.366;0.020;2023-01-06T15:50:33;4.20;;;1.92;;
31758;SDS011;36334;51.366;0.020;2023-01-06T15:53:21;4.30;;;2.13;;
31758;SDS011;36334;51.366;0.020;2023-01-06T15:56:16;3.85;;;2.13;;
31758;SDS011;36334;51.366;0.020;2023-01-06T15:59:09;4.57;;;2.05;;
31758;SDS011;36334;51.366;0.020;2023-01-06T16:01:58;3.30;;;1.83;;
31758;SDS011;36334;51.366;0.020;2023-01-06T16:04:46;2.92;;;1.83;;
31758;SDS011;36334;51.366;0.020;2023-01-06T16:07:35;5.00;;;2.03;;
31758;SDS011;36334;51.366;0.020;2023-01-06T16:10:29;4.82;;;2.22;;
31758;SDS011;36334;51.366;0.020;2023-01-06T16:13:34;2.95;;;1.83;;
31758;SDS011;36334;51.366;0.020;2023-01-06T16:19:09;4.13;;;1.83;;
31758;SDS011;36334;51.366;0.020;2023-01-06T16:22:02;3.60;;;1.60;;
31758;SDS011;36334;51.366;0.020;2023-01-06T16:24:52;2.28;;;1.55;;
31758;SDS011;36334;51.366;0.020;2023-01-06T16:27:38;3.50;;;2.03;;
31758;SDS011;36334;51.366;0.020;2023-01-06T16:30:26;3.88;;;2.45;;
31758;SDS011;36334;51.366;0.020;2023-01-06T16:33:38;3.40;;;2.22;;
31758;SDS011;36334;51.366;0.020;2023-01-06T16:36:30;4.05;;;2.58;;
31758;SDS011;36334;51.366;0.020;2023-01-06T16:39:16;3.58;;;2.42;;
31758;SDS011;36334;51.366;0.020;2023-01-06T16:45:16;3.45;;;2.63;;
31758;SDS011;36334;51.366;0.020;2023-01-06T16:48:20;6.03;;;3.60;;
31758;SDS011;36334;51.366;0.020;2023-01-06T16:51:07;3.58;;;2.67;;
31758;SDS011;36334;51.366;0.020;2023-01-06T16:53:58;3.25;;;2.10;;
31758;SDS011;36334;51.366;0.020;2023-01-06T16:56:44;2.55;;;1.70;;
31758;SDS011;36334;51.366;0.020;2023-01-06T16:59:31;3.42;;;1.73;;
31758;SDS011;36334;51.366;0.020;2023-01-06T17:02:20;2.78;;;1.70;;
31758;SDS011;36334;51.366;0.020;2023-01-06T17:08:25;4.45;;;1.75;;
31758;SDS011;36334;51.366;0.020;2023-01-06T17:11:17;2.10;;;1.45;;
31758;SDS011;36334;51.366;0.020;2023-01-06T17:14:13;1.88;;;1.30;;
31758;SDS011;36334;51.366;0.020;2023-01-06T17:17:02;3.05;;;1.15;;
31758;SDS011;36334;51.366;0.020;2023-01-06T17:20:08;1.90;;;1.15;;
31758;SDS011;36334;51.366;0.020;2023-01-06T17:22:56;3.17;;;1.30;;
31758;SDS011;36334;51.366;0.020;2023-01-06T17:25:45;2.55;;;0.98;;
31758;SDS011;36334;51.366;0.020;2023-01-06T17:28:32;2.30;;;1.50;;
31758;SDS011;36334;51.366;0.020;2023-01-06T17:34:14;1.88;;;1.20;;
31758;SDS011;36334;51.366;0.020;2023-01-06T17:37:10;3.05;;;1.65;;
31758;SDS011;36334;51.366;0.020;2023-01-06T17:40:10;2.10;;;1.45;;
31758;SDS011;36334;51.366;0.020;2023-01-06T17:43:01;2.58;;;1.45;;
31758;SDS011;36334;51.366;0.020;2023-01-06T17:45:51;2.05;;;1.48;;
31758;SDS011;36334;51.366;0.020;2023-01-06T17:48:38;2.38;;;1.58;;
31758;SDS011;36334;51.366;0.020;2023-01-06T17:51:24;2.80;;;1.60;;
31758;SDS011;36334;51.366;0.020;2023-01-06T17:54:17;2.80;;;1.52;;
31758;SDS011;36334;51.366;0.020;2023-01-06T17:57:22;2.88;;;1.35;;
31758;SDS011;36334;51.366;0.020;2023-01-06T18:00:14;6.90;;;1.60;;
31758;SDS011;36334;51.366;0.020;2023-01-06T18:03:01;2.35;;;1.35;;
31758;SDS011;36334;51.366;0.020;2023-01-06T18:06:03;3.70;;;1.55;;
31758;SDS011;36334;51.366;0.020;2023-01-06T18:09:06;3.55;;;1.88;;
31758;SDS011;36334;51.366;0.020;2023-01-06T18:11:58;5.05;;;1.48;;
31758;SDS011;36334;51.366;0.020;2023-01-06T18:14:48;4.95;;;1.05;;
31758;SDS011;36334;51.366;0.020;2023-01-06T18:17:33;2.28;;;1.20;;
31758;SDS011;36334;51.366;0.020;2023-01-06T18:20:20;2.60;;;1.40;;
31758;SDS011;36334;51.366;0.020;2023-01-06T18:23:13;2.10;;;1.20;;
31758;SDS011;36334;51.366;0.020;2023-01-06T18:26:04;3.17;;;1.40;;
31758;SDS011;36334;51.366;0.020;2023-01-06T18:29:14;2.85;;;1.30;;
31758;SDS011;36334;51.366;0.020;2023-01-06T18:35:15;2.47;;;1.35;;
31758;SDS011;36334;51.366;0.020;2023-01-06T18:38:03;5.72;;;1.83;;
31758;SDS011;36334;51.366;0.020;2023-01-06T18:40:53;2.65;;;1.00;;
31758;SDS011;36334;51.366;0.020;2023-01-06T18:43:40;3.13;;;1.10;;
31758;SDS011;36334;51.366;0.020;2023-01-06T18:46:27;2.95;;;1.10;;
31758;SDS011;36334;51.366;0.020;2023-01-06T18:49:18;2.58;;;1.40;;
31758;SDS011;36334;51.366;0.020;2023-01-06T18:52:28;3.47;;;1.27;;
31758;SDS011;36334;51.366;0.020;2023-01-06T18:55:12;6.05;;;1.48;;
31758;SDS011;36334;51.366;0.020;2023-01-06T19:04:04;3.65;;;1.80;;
31758;SDS011;36334;51.366;0.020;2023-01-06T19:09:45;7.70;;;2.40;;
31758;SDS011;36334;51.366;0.020;2023-01-06T19:12:33;6.90;;;1.65;;
31758;SDS011;36334;51.366;0.020;2023-01-06T19:15:25;6.07;;;1.77;;
31758;SDS011;36334;51.366;0.020;2023-01-06T19:18:12;8.57;;;2.33;;
31758;SDS011;36334;51.366;0.020;2023-01-06T19:21:01;6.47;;;1.77;;